Time,TemperatureF,DewpointF,PressureIn,WindDirection,WindDirectionDegrees,WindSpeedMPH,WindSpeedGustMPH,Humidity,HourlyPrecipIn,Conditions,Clouds,dailyrainin,SoftwareType,DateUTC
2013-04-14 10:50:00,63.9,63.6,29.83,East,94,0.0,7.0,99,0.14,,,0.37,Wunderground v.1.15,2013-04-14 15:50:00,
2013-04-14 10:55:00,63.9,63.6,29.83,East,84,0.0,7.0,99,0.10,,,0.38,Wunderground v.1.15,2013-04-14 15:55:00,
2013-04-14 11:00:00,63.9,63.6,29.83,SE,131,0.0,7.0,99,0.07,,,0.38,Wunderground v.1.15,2013-04-14 16:00:00,
2013-04-14 11:06:00,64.0,63.7,29.83,ESE,115,0.0,7.0,99,0.18,,,0.40,Wunderground v.1.15,2013-04-14 16:06:00,
2013-04-14 11:15:00,64.2,63.9,29.83,NNW,335,0.0,1.0,99,0.20,,,0.43,Wunderground v.1.15,2013-04-14 16:15:00,
2013-04-14 11:20:00,64.2,63.9,29.86,NNE,27,0.0,1.0,99,0.68,,,0.49,Wunderground v.1.15,2013-04-14 16:20:00,
2013-04-14 11:30:00,64.2,63.9,29.86,NNE,27,0.0,1.0,99,0.28,,,0.67,Wunderground v.1.15,2013-04-14 16:30:00,
2013-04-14 11:35:00,64.2,63.9,29.91,NNE,27,0.0,1.0,99,0.27,,,0.69,Wunderground v.1.15,2013-04-14 16:35:00,
2013-04-14 11:40:00,64.2,64.2,29.91,WSW,238,1.0,1.0,100,5.59,,,0.84,Wunderground v.1.15,2013-04-14 16:40:00,
2013-04-14 11:45:00,64.2,63.9,29.91,ESE,115,1.0,1.0,99,0.51,,,0.97,Wunderground v.1.15,2013-04-14 16:45:00,
2013-04-14 11:55:00,63.9,63.9,29.88,East,101,0.0,1.0,100,0.10,,,0.98,Wunderground v.1.15,2013-04-14 16:55:00,
2013-04-14 12:00:00,63.9,63.9,29.88,NE,51,0.0,1.0,100,0.10,,,0.99,Wunderground v.1.15,2013-04-14 17:00:00,
2013-04-14 12:05:00,63.7,63.7,29.86,NE,51,0.0,5.0,100,0.09,,,1.00,Wunderground v.1.15,2013-04-14 17:05:00,
2013-04-14 12:15:00,62.3,61.7,29.86,WNW,286,1.0,5.0,98,0.31,,,1.04,Wunderground v.1.15,2013-04-14 17:15:00,
2013-04-14 12:20:00,61.2,60.9,29.88,ESE,109,2.0,2.0,99,0.18,,,1.05,Wunderground v.1.15,2013-04-14 17:20:00,
2013-04-14 12:25:00,60.7,60.4,29.88,NNE,32,1.0,5.0,99,0.23,,,1.07,Wunderground v.1.15,2013-04-14 17:25:00,
2013-04-14 12:35:00,59.9,59.6,29.90,NE,49,1.0,5.0,99,0.17,,,1.10,Wunderground v.1.15,2013-04-14 17:35:00,
2013-04-14 12:40:00,59.6,59.3,29.90,East,81,0.0,5.0,99,0.19,,,1.11,Wunderground v.1.15,2013-04-14 17:40:00,
2013-04-14 12:50:00,59.3,59.3,29.90,SSE,155,1.0,5.0,100,0.24,,,1.16,Wunderground v.1.15,2013-04-14 17:50:00,
2013-04-14 12:55:00,59.2,59.2,29.90,NNW,342,1.0,5.0,100,0.15,,,1.18,Wunderground v.1.15,2013-04-14 17:55:00,
2013-04-14 13:05:00,59.0,59.0,29.91,NNW,331,1.0,9.0,100,0.12,,,1.20,Wunderground v.1.15,2013-04-14 18:05:00,
2013-04-14 13:15:00,58.9,58.9,29.91,SE,129,0.0,9.0,100,0.17,,,1.23,Wunderground v.1.15,2013-04-14 18:15:00,
2013-04-14 13:20:00,58.9,58.9,29.90,NE,39,0.0,9.0,100,0.20,,,1.25,Wunderground v.1.15,2013-04-14 18:20:00,
2013-04-14 13:25:00,58.9,58.9,29.90,ENE,75,0.0,9.0,100,0.12,,,1.26,Wunderground v.1.15,2013-04-14 18:25:00,
2013-04-14 13:35:00,58.9,58.9,29.90,East,96,0.0,9.0,100,0.16,,,1.27,Wunderground v.1.15,2013-04-14 18:35:00,
2013-04-14 13:45:00,59.0,59.0,29.90,ENE,70,0.0,9.0,100,0.15,,,1.30,Wunderground v.1.15,2013-04-14 18:45:00,
2013-04-14 13:50:00,59.2,59.2,29.88,ENE,65,0.0,9.0,100,0.18,,,1.31,Wunderground v.1.15,2013-04-14 18:50:00,
2013-04-14 13:56:00,59.2,59.2,29.88,ENE,64,0.0,9.0,100,0.24,,,1.33,Wunderground v.1.15,2013-04-14 18:56:00,
2013-04-14 14:05:00,59.3,59.3,29.84,North,8,0.0,9.0,100,0.24,,,1.36,Wunderground v.1.15,2013-04-14 19:05:00,
2013-04-14 14:15:00,59.6,59.6,29.84,ENE,67,0.0,1.0,100,0.17,,,1.39,Wunderground v.1.15,2013-04-14 19:15:00,
2013-04-14 14:25:00,59.8,59.8,29.80,SSE,165,1.0,1.0,100,0.08,,,1.41,Wunderground v.1.15,2013-04-14 19:25:00,
2013-04-14 14:30:00,59.9,59.9,29.80,SSW,193,1.0,3.0,100,0.08,,,1.41,Wunderground v.1.15,2013-04-14 19:30:00,
2013-04-14 14:40:00,60.2,60.2,29.76,ESE,119,1.0,1.0,100,0.04,,,1.41,Wunderground v.1.15,2013-04-14 19:40:00,
2013-04-14 14:45:00,60.4,60.4,29.76,ESE,108,1.0,3.0,100,0.00,,,1.41,Wunderground v.1.15,2013-04-14 19:45:00,
2013-04-14 14:55:00,60.9,60.9,29.71,ESE,115,2.0,2.0,100,0.00,,,1.41,Wunderground v.1.15,2013-04-14 19:55:00,
2013-04-14 15:00:00,60.9,60.9,29.71,SE,146,1.0,1.0,100,0.00,,,1.41,Wunderground v.1.15,2013-04-14 20:00:00,
2013-04-14 15:05:00,61.0,61.0,29.71,SSE,148,0.0,11.0,100,0.00,,,1.41,Wunderground v.1.15,2013-04-14 20:05:00,
2013-04-14 15:15:00,61.2,61.2,29.71,SSW,200,0.0,11.0,100,0.00,,,1.41,Wunderground v.1.15,2013-04-14 20:15:00,
2013-04-14 15:20:00,61.2,61.2,29.74,SW,231,0.0,11.0,100,0.00,,,1.41,Wunderground v.1.15,2013-04-14 20:20:00,
2013-04-14 15:25:00,61.3,61.3,29.74,SE,134,1.0,11.0,100,0.00,,,1.41,Wunderground v.1.15,2013-04-14 20:25:00,
2013-04-14 15:35:00,61.8,61.8,29.75,East,84,0.0,11.0,100,0.00,,,1.42,Wunderground v.1.15,2013-04-14 20:35:00,
2013-04-14 15:40:00,62.1,62.1,29.75,SE,133,1.0,1.0,100,0.00,,,1.42,Wunderground v.1.15,2013-04-14 20:40:00,
2013-04-14 15:45:00,62.4,62.4,29.75,East,101,1.0,11.0,100,0.04,,,1.43,Wunderground v.1.15,2013-04-14 20:45:00,
2013-04-14 15:55:00,62.9,62.9,29.71,SE,130,0.0,2.0,100,0.04,,,1.43,Wunderground v.1.15,2013-04-14 20:55:00,
2013-04-14 16:05:00,63.4,63.4,29.72,East,98,1.0,3.0,100,0.00,,,1.43,Wunderground v.1.15,2013-04-14 21:05:00,
2013-04-14 16:15:00,63.9,63.9,29.72,ENE,70,1.0,3.0,100,0.00,,,1.44,Wunderground v.1.15,2013-04-14 21:15:00,
2013-04-14 16:25:00,64.0,64.0,29.76,SE,125,1.0,3.0,100,0.00,,,1.44,Wunderground v.1.15,2013-04-14 21:25:00,
2013-04-14 16:30:00,64.2,64.2,29.76,SSE,163,2.0,3.0,100,0.00,,,1.44,Wunderground v.1.15,2013-04-14 21:30:00,
2013-04-14 16:40:00,64.2,63.9,29.73,SE,141,1.0,3.0,99,0.00,,,1.44,Wunderground v.1.15,2013-04-14 21:40:00,
2013-04-14 16:45:00,64.2,63.9,29.73,ENE,77,1.0,3.0,99,0.00,,,1.44,Wunderground v.1.15,2013-04-14 21:45:00,
2013-04-14 16:55:00,64.3,63.7,29.71,SSE,152,2.0,5.0,98,0.00,,,1.44,Wunderground v.1.15,2013-04-14 21:55:00,
2013-04-14 17:00:00,64.2,63.3,29.71,SE,141,3.0,3.0,97,0.00,,,1.44,Wunderground v.1.15,2013-04-14 22:00:00,
2013-04-14 17:05:00,64.3,63.4,29.67,ESE,106,3.0,12.0,97,0.00,,,1.44,Wunderground v.1.15,2013-04-14 22:05:00,
2013-04-14 17:15:00,64.8,63.6,29.67,ESE,120,2.0,12.0,96,0.00,,,1.44,Wunderground v.1.15,2013-04-14 22:15:00,
2013-04-14 17:25:00,65.2,64.0,29.74,ESE,118,1.0,12.0,96,0.00,,,1.44,Wunderground v.1.15,2013-04-14 22:25:00,
2013-04-14 17:30:00,65.2,64.0,29.74,SE,129,1.0,1.0,96,0.00,,,1.44,Wunderground v.1.15,2013-04-14 22:30:00,
2013-04-14 17:40:00,65.5,64.0,29.77,SE,136,1.0,1.0,95,0.00,,,1.44,Wunderground v.1.15,2013-04-14 22:40:00,
2013-04-14 17:45:00,65.5,64.0,29.77,West,263,1.0,12.0,95,0.00,,,1.44,Wunderground v.1.15,2013-04-14 22:45:00,
2013-04-14 17:55:00,65.5,64.0,29.79,ENE,74,1.0,12.0,95,0.00,,,1.44,Wunderground v.1.15,2013-04-14 22:55:00,
2013-04-14 18:05:00,65.6,64.1,29.80,WNW,285,2.0,12.0,95,0.00,,,1.44,Wunderground v.1.15,2013-04-14 23:05:00,
2013-04-14 18:15:00,65.6,63.8,29.80,SE,139,2.0,12.0,94,0.00,,,1.44,Wunderground v.1.15,2013-04-14 23:15:00,
2013-04-14 18:25:00,65.8,64.3,29.81,SE,124,1.0,12.0,95,0.00,,,1.44,Wunderground v.1.15,2013-04-14 23:25:00,
2013-04-14 18:30:00,66.0,64.5,29.81,ESE,110,1.0,1.0,95,0.00,,,1.44,Wunderground v.1.15,2013-04-14 23:30:00,
2013-04-14 18:35:00,66.1,64.6,29.81,SSE,157,1.0,12.0,95,0.00,,,1.44,Wunderground v.1.15,2013-04-14 23:35:00,
2013-04-14 18:45:00,66.4,64.9,29.81,SSE,160,0.0,12.0,95,0.00,,,1.44,Wunderground v.1.15,2013-04-14 23:45:00,
2013-04-14 18:50:00,66.4,64.9,29.80,ESE,105,1.0,1.0,95,0.00,,,1.44,Wunderground v.1.15,2013-04-14 23:50:00,
2013-04-14 19:00:00,66.8,65.3,29.80,South,190,1.0,1.0,95,0.00,,,1.44,Wunderground v.1.15,2013-04-15 00:00:00,
2013-04-14 19:05:00,66.8,65.3,29.80,ESE,117,0.0,5.0,95,0.00,,,1.44,Wunderground v.1.15,2013-04-15 00:05:00,
2013-04-14 19:15:00,66.8,65.3,29.80,SSE,151,0.0,5.0,95,0.00,,,1.44,Wunderground v.1.15,2013-04-15 00:15:00,
2013-04-14 19:20:00,66.9,65.1,29.80,NE,56,1.0,5.0,94,0.00,,,1.44,Wunderground v.1.15,2013-04-15 00:20:00,
2013-04-14 19:25:00,66.9,65.1,29.80,East,97,1.0,5.0,94,0.00,,,1.44,Wunderground v.1.15,2013-04-15 00:25:00,
2013-04-14 19:35:00,67.1,65.0,29.80,SW,217,1.0,2.0,93,0.00,,,1.44,Wunderground v.1.15,2013-04-15 00:35:00,
2013-04-14 19:46:00,67.1,65.0,29.80,East,100,1.0,5.0,93,0.00,,,1.44,Wunderground v.1.15,2013-04-15 00:46:00,
2013-04-14 19:55:00,67.3,65.2,29.80,NE,46,0.0,5.0,93,0.00,,,1.45,Wunderground v.1.15,2013-04-15 00:55:00,
2013-04-14 20:00:00,67.3,65.2,29.80,NNE,31,0.0,5.0,93,0.00,,,1.45,Wunderground v.1.15,2013-04-15 01:00:00,
2013-04-14 20:10:00,67.1,65.0,29.80,SE,141,0.0,4.0,93,0.00,,,1.45,Wunderground v.1.15,2013-04-15 01:10:00,
2013-04-14 20:15:00,67.1,65.0,29.80,SE,138,0.0,4.0,93,0.00,,,1.45,Wunderground v.1.15,2013-04-15 01:15:00,
2013-04-14 20:25:00,66.9,65.1,29.80,ESE,113,0.0,4.0,94,0.00,,,1.45,Wunderground v.1.15,2013-04-15 01:25:00,
2013-04-14 20:30:00,66.9,65.1,29.80,ESE,113,0.0,4.0,94,0.00,,,1.45,Wunderground v.1.15,2013-04-15 01:30:00,
2013-04-14 20:40:00,66.9,65.1,29.80,ESE,109,0.0,4.0,94,0.00,,,1.45,Wunderground v.1.15,2013-04-15 01:40:00,
2013-04-14 20:45:00,66.9,65.1,29.80,SE,133,0.0,4.0,94,0.00,,,1.45,Wunderground v.1.15,2013-04-15 01:45:00,
2013-04-14 20:55:00,66.8,65.3,29.81,ESE,114,0.0,4.0,95,0.00,,,1.45,Wunderground v.1.15,2013-04-15 01:55:00,
2013-04-14 21:00:00,66.8,65.3,29.81,ESE,114,0.0,4.0,95,0.00,,,1.45,Wunderground v.1.15,2013-04-15 02:00:00,
2013-04-14 21:05:00,66.6,65.1,29.80,ESE,106,0.0,4.0,95,0.00,,,1.45,Wunderground v.1.15,2013-04-15 02:05:00,
2013-04-14 21:15:00,66.4,64.9,29.80,ESE,106,0.0,2.0,95,0.00,,,1.45,Wunderground v.1.15,2013-04-15 02:15:00,
2013-04-14 21:20:00,66.3,64.8,29.81,ESE,106,0.0,2.0,95,0.00,,,1.45,Wunderground v.1.15,2013-04-15 02:20:00,
2013-04-14 21:30:00,65.8,64.3,29.81,ESE,106,0.0,2.0,95,0.00,,,1.45,Wunderground v.1.15,2013-04-15 02:30:00,
2013-04-14 21:35:00,65.5,64.0,29.81,ESE,106,0.0,2.0,95,0.00,,,1.45,Wunderground v.1.15,2013-04-15 02:35:00,
2013-04-14 21:45:00,64.8,63.3,29.81,ESE,106,0.0,2.0,95,0.00,,,1.45,Wunderground v.1.15,2013-04-15 02:45:00,
2013-04-14 21:50:00,64.7,63.5,29.82,ESE,106,0.0,2.0,96,0.00,,,1.45,Wunderground v.1.15,2013-04-15 02:50:00,
2013-04-14 22:00:00,64.2,63.0,29.82,ESE,106,0.0,2.0,96,0.00,,,1.45,Wunderground v.1.15,2013-04-15 03:00:00,
2013-04-14 22:05:00,64.0,62.8,29.82,ESE,106,0.0,2.0,96,0.00,,,1.45,Wunderground v.1.15,2013-04-15 03:05:00,
2013-04-14 22:15:00,63.7,62.5,29.82,ESE,106,0.0,0.0,96,0.00,,,1.45,Wunderground v.1.15,2013-04-15 03:15:00,
2013-04-14 22:20:00,63.5,62.6,29.82,ESE,106,0.0,0.0,97,0.00,,,1.45,Wunderground v.1.15,2013-04-15 03:20:00,
2013-04-14 22:25:00,63.4,62.5,29.82,ESE,106,0.0,0.0,97,0.00,,,1.45,Wunderground v.1.15,2013-04-15 03:25:00,
2013-04-14 22:35:00,63.1,62.2,29.82,ESE,106,0.0,0.0,97,0.00,,,1.45,Wunderground v.1.15,2013-04-15 03:35:00,
2013-04-14 22:40:00,63.1,62.2,29.82,ESE,106,0.0,0.0,97,0.00,,,1.45,Wunderground v.1.15,2013-04-15 03:40:00,
2013-04-14 22:50:00,62.9,62.3,29.82,ESE,106,0.0,0.0,98,0.00,,,1.45,Wunderground v.1.15,2013-04-15 03:50:00,
2013-04-14 23:00:00,62.9,62.3,29.82,ESE,106,0.0,0.0,98,0.00,,,1.45,Wunderground v.1.15,2013-04-15 04:00:00,
2013-04-14 23:05:00,62.9,62.3,29.82,ESE,106,0.0,0.0,98,0.00,,,1.45,Wunderground v.1.15,2013-04-15 04:05:00,
2013-04-14 23:15:00,62.7,62.1,29.82,ESE,106,0.0,0.0,98,0.00,,,1.45,Wunderground v.1.15,2013-04-15 04:15:00,
2013-04-14 23:20:00,62.7,62.1,29.82,ESE,106,0.0,0.0,98,0.00,,,1.45,Wunderground v.1.15,2013-04-15 04:20:00,
2013-04-14 23:25:00,62.7,62.4,29.82,ESE,106,0.0,0.0,99,0.00,,,1.45,Wunderground v.1.15,2013-04-15 04:25:00,
2013-04-14 23:35:00,62.7,62.4,29.82,ESE,106,0.0,0.0,99,0.00,,,1.45,Wunderground v.1.15,2013-04-15 04:35:00,
2013-04-14 23:40:00,62.6,62.3,29.82,ESE,106,0.0,0.0,99,0.00,,,1.45,Wunderground v.1.15,2013-04-15 04:40:00,
2013-04-14 23:45:00,62.4,62.1,29.82,ESE,106,0.0,0.0,99,0.00,,,1.45,Wunderground v.1.15,2013-04-15 04:45:00,
2013-04-14 23:55:00,62.1,61.8,29.83,ESE,106,0.0,0.0,99,0.00,,,1.45,Wunderground v.1.15,2013-04-15 04:55:00,